createdAt,value
2023-01-09T00:00:29.616Z,99505.72
2023-01-09T00:02:56.470Z,99516.66
2023-01-09T00:05:23.112Z,99506.88
2023-01-09T00:07:49.521Z,99511.56
2023-01-09T00:10:16.411Z,99506.78
2023-01-09T00:12:46.110Z,99505.03
2023-01-09T00:18:14.302Z,99513.16
2023-01-09T00:20:41.105Z,99509.88
2023-01-09T00:23:15.322Z,99510.16
2023-01-09T00:25:42.735Z,99515.16
2023-01-09T00:28:12.273Z,99523.22
2023-01-09T00:30:39.543Z,99518.88
2023-01-09T00:33:14.155Z,99515.63
2023-01-09T00:35:45.184Z,99515.41
2023-01-09T00:38:12.074Z,99515.47
2023-01-09T00:40:38.513Z,99511.13
2023-01-09T00:43:05.642Z,99514.59
2023-01-09T00:45:32.470Z,99503.53
2023-01-09T00:48:04.127Z,99519.34
2023-01-09T00:50:34.153Z,99517.31
2023-01-09T00:55:49.153Z,99520.56
2023-01-09T00:58:15.941Z,99517.25
2023-01-09T01:00:42.412Z,99524.81
2023-01-09T01:03:10.413Z,99525.34
2023-01-09T01:06:02.830Z,99525.94
2023-01-09T01:08:29.278Z,99521.59
2023-01-09T01:10:56.092Z,99523.97
2023-01-09T01:13:25.048Z,99529.69
2023-01-09T01:15:52.123Z,99532.84
2023-01-09T01:18:19.140Z,99534.44
2023-01-09T01:20:46.140Z,99535.78
2023-01-09T01:23:16.935Z,99531.91
2023-01-09T01:25:44.901Z,99527.81
2023-01-09T01:28:16.011Z,99526.50
2023-01-09T01:30:43.667Z,99524.28
2023-01-09T01:33:11.960Z,99534.13
2023-01-09T01:35:38.563Z,99527.97
2023-01-09T01:38:05.571Z,99531.66
2023-01-09T01:40:38.223Z,99538.69
2023-01-09T01:43:12.167Z,99545.22
2023-01-09T01:45:41.130Z,99551.22
2023-01-09T01:48:13.781Z,99556.91
2023-01-09T01:50:50.526Z,99548.94
2023-01-09T01:53:31.670Z,99554.66
2023-01-09T01:56:33.139Z,99557.06
2023-01-09T01:59:20.720Z,99546.50
2023-01-09T02:01:52.287Z,99549.63
2023-01-09T02:04:21.736Z,99552.78
2023-01-09T02:06:52.110Z,99552.28
2023-01-09T02:09:26.884Z,99556.97
2023-01-09T02:11:57.248Z,99546.88
2023-01-09T02:14:30.162Z,99555.41
2023-01-09T02:17:26.389Z,99560.34
2023-01-09T02:20:30.221Z,99561.94
2023-01-09T02:23:16.269Z,99565.56
2023-01-09T02:26:09.011Z,99568.88
2023-01-09T02:28:56.392Z,99567.00
2023-01-09T02:31:36.385Z,99562.63
2023-01-09T02:34:12.446Z,99566.47
2023-01-09T02:37:04.958Z,99569.59
2023-01-09T02:40:09.004Z,99570.91
2023-01-09T02:42:43.924Z,99557.00
2023-01-09T02:45:12.815Z,99565.31
2023-01-09T02:47:59.492Z,99559.59
2023-01-09T02:50:46.211Z,99561.69
2023-01-09T02:53:27.123Z,99561.19
2023-01-09T02:56:15.435Z,99562.75
2023-01-09T02:59:05.283Z,99563.00
2023-01-09T03:01:56.756Z,99558.09
2023-01-09T03:04:50.777Z,99564.34
2023-01-09T03:07:39.659Z,99563.28
2023-01-09T03:10:13.857Z,99558.09
2023-01-09T03:12:44.433Z,99554.53
2023-01-09T03:15:15.300Z,99554.31
2023-01-09T03:17:49.668Z,99559.75
2023-01-09T03:20:23.156Z,99557.66
2023-01-09T03:23:08.755Z,99553.03
2023-01-09T03:25:47.258Z,99539.59
2023-01-09T03:28:31.329Z,99547.66
2023-01-09T03:31:00.002Z,99546.34
2023-01-09T03:33:29.946Z,99541.19
2023-01-09T03:35:56.720Z,99546.34
2023-01-09T03:38:23.454Z,99545.34
2023-01-09T03:40:49.894Z,99545.34
2023-01-09T03:43:17.680Z,99552.59
2023-01-09T03:45:44.212Z,99549.00
2023-01-09T03:48:11.502Z,99552.59
2023-01-09T03:50:38.477Z,99553.94
2023-01-09T03:53:16.922Z,99563.25
2023-01-09T03:55:56.412Z,99559.66
2023-01-09T03:58:26.845Z,99563.56
2023-01-09T04:01:00.505Z,99557.41
2023-01-09T04:03:27.305Z,99564.16
2023-01-09T04:05:58.432Z,99562.84
2023-01-09T04:08:26.953Z,99570.84
2023-01-09T04:10:53.821Z,99567.28
2023-01-09T04:13:23.047Z,99563.69
2023-01-09T04:16:05.528Z,99568.84
2023-01-09T04:18:33.845Z,99568.88
2023-01-09T04:21:00.826Z,99567.63
2023-01-09T04:23:27.719Z,99570.47
2023-01-09T04:25:54.618Z,99567.88
2023-01-09T04:28:23.607Z,99575.63
2023-01-09T04:30:50.539Z,99569.44
2023-01-09T04:33:23.078Z,99566.38
2023-01-09T04:35:49.565Z,99567.38
2023-01-09T04:38:16.071Z,99575.13
2023-01-09T04:40:42.906Z,99573.88
2023-01-09T04:43:09.919Z,99576.94
2023-01-09T04:45:39.697Z,99581.06
2023-01-09T04:48:10.614Z,99577.97
2023-01-09T04:50:37.934Z,99574.31
2023-01-09T04:53:07.305Z,99574.81
2023-01-09T04:55:36.866Z,99568.81
2023-01-09T04:58:05.860Z,99574.50
2023-01-09T05:00:49.139Z,99561.81
2023-01-09T05:03:17.989Z,99569.50
2023-01-09T05:05:44.770Z,99565.56
2023-01-09T05:08:12.605Z,99570.94
2023-01-09T05:10:39.137Z,99567.03
2023-01-09T05:13:05.584Z,99561.34
2023-01-09T05:15:32.085Z,99563.38
2023-01-09T05:17:58.549Z,99562.56
2023-01-09T05:20:24.930Z,99563.84
2023-01-09T05:22:51.355Z,99560.44
2023-01-09T05:25:17.749Z,99555.50
2023-01-09T05:27:46.231Z,99553.13
2023-01-09T05:30:15.524Z,99547.16
2023-01-09T05:32:43.838Z,99548.13
2023-01-09T05:35:10.313Z,99545.03
2023-01-09T05:37:38.095Z,99541.88
2023-01-09T05:40:06.113Z,99544.47
2023-01-09T05:42:32.580Z,99542.38
2023-01-09T05:44:59.130Z,99541.34
2023-01-09T05:47:25.553Z,99543.44
2023-01-09T05:49:52.086Z,99542.94
2023-01-09T05:52:18.573Z,99542.94
2023-01-09T05:54:44.969Z,99539.28
2023-01-09T05:57:11.539Z,99549.09
2023-01-09T05:59:38.140Z,99538.19
2023-01-09T06:02:04.717Z,99532.50
2023-01-09T06:04:31.239Z,99532.72
2023-01-09T06:06:57.748Z,99535.81
2023-01-09T06:09:24.331Z,99533.72
2023-01-09T06:11:51.202Z,99534.69
2023-01-09T06:14:18.133Z,99531.81
2023-01-09T06:16:44.932Z,99527.94
2023-01-09T06:19:11.435Z,99526.34
2023-01-09T06:21:38.703Z,99525.00
2023-01-09T06:24:05.793Z,99529.13
2023-01-09T06:26:32.653Z,99526.25
2023-01-09T06:29:00.838Z,99521.31
2023-01-09T06:31:27.842Z,99526.97
2023-01-09T06:33:54.453Z,99514.53
2023-01-09T06:36:22.562Z,99526.94
2023-01-09T06:38:49.242Z,99525.13
2023-01-09T06:41:15.743Z,99521.19
2023-01-09T06:43:42.330Z,99515.75
2023-01-09T06:46:09.173Z,99517.78
2023-01-09T06:48:36.162Z,99514.91
2023-01-09T06:51:02.877Z,99512.81
2023-01-09T06:53:29.651Z,99514.88
2023-01-09T06:55:57.372Z,99513.53
2023-01-09T06:58:23.826Z,99517.09
2023-01-09T07:00:50.521Z,99515.00
2023-01-09T07:03:22.123Z,99524.50
2023-01-09T07:05:49.517Z,99517.22
2023-01-09T07:08:16.260Z,99519.81
2023-01-09T07:10:43.959Z,99526.47
2023-01-09T07:13:10.838Z,99522.09
2023-01-09T07:15:37.736Z,99523.34
2023-01-09T07:18:04.507Z,99530.53
2023-01-09T07:20:31.813Z,99516.56
2023-01-09T07:22:59.548Z,99513.69
2023-01-09T07:25:28.233Z,99515.50
2023-01-09T07:27:54.876Z,99519.34
2023-01-09T07:30:21.390Z,99524.25
2023-01-09T07:32:48.043Z,99524.75
2023-01-09T07:35:15.942Z,99524.44
2023-01-09T07:37:42.481Z,99522.66
2023-01-09T07:40:10.692Z,99527.84
2023-01-09T07:42:37.269Z,99523.91
2023-01-09T07:45:04.642Z,99532.91
2023-01-09T07:47:33.385Z,99538.09
2023-01-09T07:49:59.894Z,99532.91
2023-01-09T07:52:27.941Z,99531.88
2023-01-09T07:54:54.360Z,99536.75
2023-01-09T07:57:21.120Z,99541.66
2023-01-09T07:59:47.610Z,99533.63
2023-01-09T08:02:14.213Z,99534.88
2023-01-09T08:04:40.698Z,99539.78
2023-01-09T08:07:07.533Z,99542.09
2023-01-09T08:09:34.581Z,99548.81
2023-01-09T08:12:01.077Z,99538.16
2023-01-09T08:14:28.645Z,99548.25
2023-01-09T08:16:57.588Z,99552.38
2023-01-09T08:19:24.039Z,99557.53
2023-01-09T08:21:50.487Z,99557.53
2023-01-09T08:24:17.418Z,99561.97
2023-01-09T08:26:44.081Z,99562.72
2023-01-09T08:29:11.571Z,99560.13
2023-01-09T08:31:42.248Z,99570.50
2023-01-09T08:34:08.843Z,99576.75
2023-01-09T08:36:35.384Z,99590.19
2023-01-09T08:39:02.081Z,99590.19
2023-01-09T08:41:47.739Z,99590.41
2023-01-09T08:44:32.623Z,99588.31
2023-01-09T08:47:09.281Z,99599.41
2023-01-09T08:49:38.627Z,99587.72
2023-01-09T08:52:07.176Z,99601.38
2023-01-09T08:54:38.418Z,99602.34
2023-01-09T08:57:05.988Z,99600.25
2023-01-09T08:59:32.646Z,99618.34
2023-01-09T09:01:59.480Z,99615.44
2023-01-09T09:04:26.117Z,99617.75
2023-01-09T09:06:52.648Z,99620.06
2023-01-09T09:09:19.408Z,99634.28
2023-01-09T09:11:45.912Z,99638.13
2023-01-09T09:14:31.169Z,99645.34
2023-01-09T09:16:57.821Z,99660.31
2023-01-09T09:19:25.986Z,99661.31
2023-01-09T09:21:53.005Z,99667.75
2023-01-09T09:24:19.695Z,99679.38
2023-01-09T09:26:47.699Z,99684.31
2023-01-09T09:29:14.308Z,99689.97
2023-01-09T09:31:47.320Z,99692.78
2023-01-09T09:34:13.947Z,99699.97
2023-01-09T09:36:40.793Z,99703.56
2023-01-09T09:39:08.678Z,99702.25
2023-01-09T09:42:31.488Z,99715.41
2023-01-09T09:45:15.543Z,99720.81
2023-01-09T09:47:52.293Z,99728.03
2023-01-09T09:50:28.099Z,99739.19
2023-01-09T09:53:28.040Z,99751.09
2023-01-09T09:55:55.561Z,99763.78
2023-01-09T09:58:32.016Z,99773.94
2023-01-09T10:01:04.423Z,99790.84
2023-01-09T10:03:49.192Z,99791.88
2023-01-09T10:06:50.501Z,99783.13
2023-01-09T10:09:41.238Z,99802.34
2023-01-09T10:12:08.445Z,99793.47
2023-01-09T10:14:35.234Z,99809.03
2023-01-09T10:17:33.158Z,99808.22
2023-01-09T10:20:37.931Z,99815.88
2023-01-09T10:23:44.013Z,99824.84
2023-01-09T10:26:27.742Z,99825.75
2023-01-09T10:29:28.692Z,99829.25
2023-01-09T10:32:32.316Z,99835.81
2023-01-09T10:35:11.840Z,99836.19
2023-01-09T10:37:46.014Z,99845.06
2023-01-09T10:40:36.230Z,99852.91
2023-01-09T10:43:09.346Z,99860.59
2023-01-09T10:45:47.681Z,99856.97
2023-01-09T10:48:29.132Z,99867.91
2023-01-09T10:50:56.765Z,99880.63
2023-01-09T10:53:41.867Z,99872.13
2023-01-09T10:56:34.735Z,99877.47
2023-01-09T10:59:03.276Z,99887.47
2023-01-09T11:01:40.028Z,99887.47
2023-01-09T11:04:26.862Z,99897.75
2023-01-09T11:06:59.509Z,99897.69
2023-01-09T11:09:27.428Z,99905.97
2023-01-09T11:11:54.047Z,99900.13
2023-01-09T11:14:31.740Z,99901.03
2023-01-09T11:17:06.679Z,99898.88
2023-01-09T11:19:36.818Z,99901.69
2023-01-09T11:22:15.226Z,99915.22
2023-01-09T11:24:43.194Z,99908.50
2023-01-09T11:27:25.505Z,99908.13
2023-01-09T11:30:24.361Z,99922.38
2023-01-09T11:32:51.125Z,99921.03
2023-01-09T11:35:42.711Z,99927.13
2023-01-09T11:38:19.821Z,99934.47
2023-01-09T11:40:50.744Z,99927.06
2023-01-09T11:43:33.272Z,99937.28
2023-01-09T11:46:07.814Z,99945.84
2023-01-09T11:48:59.202Z,99954.03
2023-01-09T11:51:40.822Z,99953.25
2023-01-09T11:54:14.517Z,99959.31
2023-01-09T11:56:42.133Z,99955.09
2023-01-09T11:59:19.303Z,99958.66
2023-01-09T12:02:05.705Z,99967.03
2023-01-09T12:04:43.946Z,99960.34
2023-01-09T12:07:40.397Z,99972.22
2023-01-09T12:10:49.518Z,99964.47
2023-01-09T12:14:15.279Z,99964.84
2023-01-09T12:17:11.786Z,99972.81
2023-01-09T12:19:53.721Z,99979.63
2023-01-09T12:22:44.336Z,99990.69
2023-01-09T12:25:20.207Z,99987.88
2023-01-09T12:27:58.602Z,100004.50
2023-01-09T12:31:00.377Z,100002.75
2023-01-09T12:33:33.021Z,100001.28
2023-01-09T12:36:14.319Z,100006.75
2023-01-09T12:39:24.179Z,100014.31
2023-01-09T12:42:12.358Z,100011.31
2023-01-09T12:44:41.989Z,100011.81
2023-01-09T12:47:17.674Z,100009.63
2023-01-09T12:49:57.818Z,100015.75
2023-01-09T12:52:35.044Z,100007.25
2023-01-09T12:55:25.541Z,100010.66
2023-01-09T12:57:59.023Z,100017.81
2023-01-09T13:00:36.505Z,100007.03
2023-01-09T13:03:20.243Z,100015.53
2023-01-09T13:05:50.399Z,100015.06
2023-01-09T13:08:43.774Z,100019.56
2023-01-09T13:11:51.413Z,100018.69
2023-01-09T13:14:44.524Z,100020.56
2023-01-09T13:17:21.752Z,100035.97
2023-01-09T13:19:49.461Z,100040.94
2023-01-09T13:22:19.267Z,100038.34
2023-01-09T13:25:22.042Z,100052.41
2023-01-09T13:28:00.541Z,100051.13
2023-01-09T13:31:04.469Z,100054.69
2023-01-09T13:33:46.886Z,100066.06
2023-01-09T13:36:46.598Z,100067.41
2023-01-09T13:39:35.102Z,100071.50
2023-01-09T13:42:23.719Z,100074.56
2023-01-09T13:44:54.425Z,100081.13
2023-01-09T13:47:36.590Z,100084.97
2023-01-09T13:50:21.873Z,100086.59
2023-01-09T13:52:48.941Z,100085.97
2023-01-09T13:55:18.221Z,100093.31
2023-01-09T13:58:05.831Z,100097.53
2023-01-09T14:00:39.174Z,100102.50
2023-01-09T14:03:08.365Z,100119.22
2023-01-09T14:06:00.924Z,100120.91
2023-01-09T14:08:29.407Z,100123.28
2023-01-09T14:11:04.186Z,100131.63
2023-01-09T14:13:44.849Z,100134.53
2023-01-09T14:16:27.297Z,100143.94
2023-01-09T14:19:05.498Z,100141.91
2023-01-09T14:21:48.102Z,100150.50
2023-01-09T14:24:29.151Z,100155.19
2023-01-09T14:26:59.082Z,100164.31
2023-01-09T14:29:33.404Z,100167.97
2023-01-09T14:32:26.233Z,100166.69
2023-01-09T14:34:57.885Z,100185.69
2023-01-09T14:37:27.651Z,100190.38
2023-01-09T14:39:55.500Z,100192.13
2023-01-09T14:42:27.405Z,100204.31
2023-01-09T14:45:06.222Z,100211.81
2023-01-09T14:47:47.114Z,100209.22
2023-01-09T14:50:53.682Z,100219.56
2023-01-09T14:53:33.816Z,100227.63
2023-01-09T14:56:06.098Z,100227.38
2023-01-09T14:58:52.062Z,100244.84
2023-01-09T15:01:55.682Z,100249.00
2023-01-09T15:04:36.723Z,100258.94
2023-01-09T15:07:05.123Z,100269.66
2023-01-09T15:09:45.642Z,100278.50
2023-01-09T15:12:22.765Z,100281.66
2023-01-09T15:14:57.033Z,100286.13
2023-01-09T15:17:31.197Z,100297.06
2023-01-09T15:20:05.533Z,100297.59
2023-01-09T15:22:38.542Z,100305.38
2023-01-09T15:25:38.776Z,100308.53
2023-01-09T15:28:45.616Z,100313.50
2023-01-09T15:31:16.957Z,100318.41
2023-01-09T15:33:56.754Z,100322.59
2023-01-09T15:37:06.322Z,100330.13
2023-01-09T15:39:37.656Z,100330.91
2023-01-09T15:42:23.456Z,100338.72
2023-01-09T15:44:58.083Z,100340.81
2023-01-09T15:48:15.098Z,100351.69
2023-01-09T15:51:20.636Z,100357.16
2023-01-09T15:54:16.146Z,100364.41
2023-01-09T15:57:34.308Z,100363.13
2023-01-09T16:00:41.792Z,100364.44
2023-01-09T16:03:26.766Z,100377.09
2023-01-09T16:06:23.587Z,100372.97
2023-01-09T16:09:14.369Z,100374.81
2023-01-09T16:11:49.656Z,100382.84
2023-01-09T16:14:24.766Z,100391.13
2023-01-09T16:16:52.878Z,100396.81
2023-01-09T16:19:41.430Z,100400.97
2023-01-09T16:22:56.756Z,100416.78
2023-01-09T16:25:34.605Z,100420.13
2023-01-09T16:28:24.475Z,100419.59
2023-01-09T16:31:09.017Z,100431.78
2023-01-09T16:33:52.227Z,100431.81
2023-01-09T16:36:26.539Z,100427.66
2023-01-09T16:38:57.609Z,100429.72
2023-01-09T16:41:43.518Z,100438.81
2023-01-09T16:44:10.700Z,100447.06
2023-01-09T16:55:13.704Z,100463.38
2023-01-09T16:58:05.552Z,100468.84
2023-01-09T17:00:32.127Z,100476.09
2023-01-09T17:02:58.708Z,100470.63
2023-01-09T17:05:25.304Z,100476.09
2023-01-09T17:07:51.942Z,100474.28
2023-01-09T17:10:21.819Z,100475.06
2023-01-09T17:12:49.180Z,100475.31
2023-01-09T17:15:23.056Z,100493.19
2023-01-09T17:17:55.758Z,100502.00
2023-01-09T17:20:50.650Z,100516.53
2023-01-09T17:23:21.065Z,100504.09
2023-01-09T17:26:08.271Z,100511.59
2023-01-09T17:28:42.009Z,100507.97
2023-01-09T17:31:20.586Z,100517.03
2023-01-09T17:33:52.487Z,100530.25
2023-01-09T17:36:38.148Z,100542.94
2023-01-09T17:39:05.278Z,100537.75
2023-01-09T17:41:40.780Z,100545.50
2023-01-09T17:44:32.824Z,100548.63
2023-01-09T17:46:59.735Z,100553.81
2023-01-09T17:49:49.231Z,100558.72
2023-01-09T17:52:15.866Z,100557.44
2023-01-09T17:54:43.090Z,100559.00
2023-01-09T17:57:15.760Z,100575.06
2023-01-09T17:59:42.623Z,100580.75
2023-01-09T18:02:39.786Z,100586.47
2023-01-09T18:05:13.051Z,100591.66
2023-01-09T18:07:39.900Z,100595.56
2023-01-09T18:10:08.244Z,100600.75
2023-01-09T18:12:35.217Z,100611.63
2023-01-09T18:15:02.577Z,100615.00
2023-01-09T18:17:29.184Z,100623.78
2023-01-09T18:19:55.603Z,100625.84
2023-01-09T18:22:22.147Z,100635.44
2023-01-09T18:24:49.175Z,100641.41
2023-01-09T18:27:15.786Z,100643.97
2023-01-09T18:29:42.309Z,100646.56
2023-01-09T18:32:10.520Z,100662.91
2023-01-09T18:34:39.525Z,100673.28
2023-01-09T18:37:06.074Z,100677.66
2023-01-09T18:39:34.407Z,100684.41
2023-01-09T18:42:00.841Z,100685.19
2023-01-09T18:44:27.705Z,100696.59
2023-01-09T18:46:57.663Z,100695.31
2023-01-09T18:49:24.149Z,100699.44
2023-01-09T18:52:13.572Z,100705.44
2023-01-09T18:54:43.556Z,100711.38
2023-01-09T18:57:10.410Z,100719.69
2023-01-09T18:59:37.844Z,100724.34
2023-01-09T19:02:04.373Z,100737.31
2023-01-09T19:04:31.537Z,100744.31
2023-01-09T19:07:01.641Z,100747.13
2023-01-09T19:09:28.356Z,100762.69
2023-01-09T19:11:54.810Z,100767.09
2023-01-09T19:14:21.245Z,100766.31
2023-01-09T19:16:47.826Z,100758.03
2023-01-09T19:19:14.537Z,100766.28
2023-01-09T19:21:41.362Z,100768.38
2023-01-09T19:24:09.097Z,100783.94
2023-01-09T19:26:37.303Z,100777.97
2023-01-09T19:29:03.979Z,100794.78
2023-01-09T19:31:31.445Z,100798.91
2023-01-09T19:33:58.980Z,100799.44
2023-01-09T19:36:26.185Z,100809.25
2023-01-09T19:38:57.758Z,100820.63
2023-01-09T19:41:27.822Z,100825.28
2023-01-09T19:43:54.951Z,100834.84
2023-01-09T19:46:24.098Z,100834.06
2023-01-09T19:48:51.505Z,100845.47
2023-01-09T19:51:19.831Z,100841.53
2023-01-09T19:53:55.470Z,100849.53
2023-01-09T19:56:24.396Z,100858.28
2023-01-09T19:58:59.722Z,100874.28
2023-01-09T20:01:36.152Z,100867.72
2023-01-09T20:04:05.974Z,100866.38
2023-01-09T20:06:33.605Z,100879.81
2023-01-09T20:09:04.564Z,100879.28
2023-01-09T20:11:32.129Z,100879.22
2023-01-09T20:13:59.681Z,100879.66
2023-01-09T20:16:30.614Z,100894.09
2023-01-09T20:19:00.722Z,100902.09
2023-01-09T20:21:28.680Z,100906.50
2023-01-09T20:23:59.332Z,100901.84
2023-01-09T20:26:27.147Z,100901.75
2023-01-09T20:28:58.463Z,100918.28
2023-01-09T20:31:33.922Z,100918.78
2023-01-09T20:34:03.195Z,100916.13
2023-01-09T20:36:30.955Z,100932.69
2023-01-09T20:39:05.429Z,100940.75
2023-01-09T20:41:32.205Z,100951.22
2023-01-09T20:44:08.028Z,100944.34
2023-01-09T20:46:38.094Z,100949.06
2023-01-09T20:49:07.481Z,100949.84
2023-01-09T20:51:41.878Z,100957.09
2023-01-09T20:54:11.244Z,100966.22
2023-01-09T20:56:37.944Z,100966.69
2023-01-09T20:59:15.387Z,100968.19
2023-01-09T21:01:42.171Z,100982.63
2023-01-09T21:04:14.895Z,100984.13
2023-01-09T21:06:42.560Z,100988.69
2023-01-09T21:09:09.150Z,100981.63
2023-01-09T21:11:35.712Z,100982.31
2023-01-09T21:14:02.403Z,100979.38
2023-01-09T21:16:29.569Z,100990.44
2023-01-09T21:18:56.334Z,100994.25
2023-01-09T21:21:27.034Z,100998.66
2023-01-09T21:23:56.485Z,100997.09
2023-01-09T21:26:27.691Z,101004.31
2023-01-09T21:28:55.911Z,101013.84
2023-01-09T21:31:26.692Z,101016.69
2023-01-09T21:33:56.082Z,101021.31
2023-01-09T21:36:22.854Z,101027.03
2023-01-09T21:38:53.806Z,101035.81
2023-01-09T21:41:39.960Z,101042.47
2023-01-09T21:44:25.314Z,101045.53
2023-01-09T21:46:52.007Z,101047.03
2023-01-09T21:49:23.161Z,101045.47
2023-01-09T21:51:49.810Z,101046.50
2023-01-09T21:54:16.291Z,101058.06
2023-01-09T21:56:42.709Z,101063.00
2023-01-09T21:59:10.085Z,101066.84
2023-01-09T22:01:36.661Z,101068.63
2023-01-09T22:04:03.785Z,101079.22
2023-01-09T22:06:31.799Z,101078.91
2023-01-09T22:08:58.271Z,101084.06
2023-01-09T22:11:24.854Z,101085.56
2023-01-09T22:13:51.778Z,101091.72
2023-01-09T22:16:19.156Z,101092.84
2023-01-09T22:18:45.958Z,101090.34
2023-01-09T22:21:12.841Z,101099.75
2023-01-09T22:23:39.456Z,101107.28
2023-01-09T22:26:13.874Z,101117.69
2023-01-09T22:28:41.458Z,101117.47
2023-01-09T22:31:16.710Z,101126.31
2023-01-09T22:33:43.737Z,101134.41
2023-01-09T22:36:12.123Z,101141.94
2023-01-09T22:38:38.771Z,101147.72
2023-01-09T22:41:06.871Z,101155.03
2023-01-09T22:43:33.394Z,101166.25
2023-01-09T22:46:04.816Z,101173.75
2023-01-09T22:48:32.308Z,101179.25
2023-01-09T22:51:02.356Z,101184.75
2023-01-09T22:53:30.216Z,101187.09
2023-01-09T22:55:59.304Z,101191.78
2023-01-09T22:58:29.906Z,101192.56
2023-01-09T23:00:56.914Z,101191.78
2023-01-09T23:03:24.264Z,101196.09
2023-01-09T23:06:03.549Z,101200.97
2023-01-09T23:08:30.995Z,101212.81
2023-01-09T23:10:58.592Z,101207.88
2023-01-09T23:13:25.678Z,101217.66
2023-01-09T23:15:54.082Z,101219.69
2023-01-09T23:18:20.863Z,101222.72
2023-01-09T23:20:56.460Z,101232.53
2023-01-09T23:23:24.569Z,101229.38
2023-01-09T23:25:53.095Z,101235.34
2023-01-09T23:28:20.430Z,101233.56
2023-01-09T23:30:48.157Z,101245.47
2023-01-09T23:33:16.777Z,101248.03
2023-01-09T23:35:44.191Z,101256.34
2023-01-09T23:38:13.865Z,101267.03
2023-01-09T23:40:44.488Z,101266.59
2023-01-09T23:43:11.930Z,101269.72
2023-01-09T23:45:39.892Z,101268.91
2023-01-09T23:48:07.663Z,101268.38
2023-01-09T23:50:34.607Z,101272.53
2023-01-09T23:53:01.764Z,101278.81
2023-01-09T23:55:28.339Z,101278.50
2023-01-09T23:57:55.642Z,101276.59
